createdAt,value
2022-12-01T00:01:17.804Z,8.11
2022-12-01T00:03:45.410Z,8.14
2022-12-01T00:06:15.914Z,8.04
2022-12-01T00:09:06.875Z,8.02
2022-12-01T00:11:35.203Z,8.02
2022-12-01T00:14:02.899Z,8.08
2022-12-01T00:16:30.350Z,8.22
2022-12-01T00:18:58.027Z,8.19
2022-12-01T00:21:25.634Z,8.11
2022-12-01T00:23:54.499Z,8.05
2022-12-01T00:26:22.376Z,7.91
2022-12-01T00:28:53.299Z,7.81
2022-12-01T00:31:20.906Z,7.83
2022-12-01T00:33:50.080Z,7.89
2022-12-01T00:36:17.424Z,7.73
2022-12-01T00:38:44.789Z,7.87
2022-12-01T00:41:12.443Z,7.76
2022-12-01T00:43:40.436Z,7.65
2022-12-01T00:46:07.844Z,6.96
2022-12-01T00:48:35.518Z,7.08
2022-12-01T00:51:03.191Z,6.60
2022-12-01T00:53:30.539Z,6.79
2022-12-01T00:55:58.160Z,6.77
2022-12-01T00:58:25.581Z,7.19
2022-12-01T01:01:02.344Z,7.22
2022-12-01T01:03:30.242Z,6.52
2022-12-01T01:06:03.458Z,7.04
2022-12-01T01:08:31.063Z,6.99
2022-12-01T01:10:59.212Z,7.36
2022-12-01T01:13:26.549Z,7.37
2022-12-01T01:16:01.638Z,6.65
2022-12-01T01:18:29.088Z,6.66
2022-12-01T01:20:58.226Z,6.93
2022-12-01T01:23:25.573Z,5.52
2022-12-01T01:25:52.952Z,6.46
2022-12-01T01:28:20.555Z,6.97
2022-12-01T01:30:47.931Z,6.74
2022-12-01T01:33:15.308Z,7.01
2022-12-01T01:35:42.908Z,6.89
2022-12-01T01:38:10.750Z,7.10
2022-12-01T01:40:45.105Z,6.93
2022-12-01T01:43:17.049Z,6.83
2022-12-01T01:45:44.423Z,6.96
2022-12-01T01:48:11.993Z,6.87
2022-12-01T01:50:39.578Z,6.99
2022-12-01T01:53:11.673Z,6.91
2022-12-01T01:55:39.007Z,7.24
2022-12-01T01:58:07.805Z,6.80
2022-12-01T02:00:35.151Z,6.79
2022-12-01T02:03:02.783Z,6.81
2022-12-01T02:05:32.331Z,6.59
2022-12-01T02:08:01.377Z,6.85
2022-12-01T02:10:58.538Z,6.61
2022-12-01T02:13:38.084Z,6.60
2022-12-01T02:16:19.442Z,6.68
2022-12-01T02:18:46.597Z,6.64
2022-12-01T02:21:14.070Z,6.44
2022-12-01T02:23:59.879Z,6.61
2022-12-01T02:27:01.623Z,6.69
2022-12-01T02:29:31.859Z,6.61
2022-12-01T02:32:08.611Z,6.74
2022-12-01T02:34:40.310Z,6.43
2022-12-01T02:37:44.776Z,6.51
2022-12-01T02:40:20.814Z,6.50
2022-12-01T02:42:53.969Z,6.32
2022-12-01T02:45:52.190Z,6.38
2022-12-01T02:48:26.543Z,6.39
2022-12-01T02:50:53.943Z,6.03
2022-12-01T02:53:21.616Z,6.31
2022-12-01T02:55:53.026Z,6.08
2022-12-01T02:58:20.384Z,5.68
2022-12-01T03:01:05.851Z,6.02
2022-12-01T03:04:02.889Z,6.14
2022-12-01T03:06:40.420Z,6.16
2022-12-01T03:09:13.031Z,6.18
2022-12-01T03:12:06.579Z,6.04
2022-12-01T03:14:52.753Z,6.08
2022-12-01T03:17:22.752Z,6.36
2022-12-01T03:19:55.804Z,6.35
2022-12-01T03:22:26.084Z,6.23
2022-12-01T03:24:54.039Z,6.04
2022-12-01T03:27:24.340Z,6.36
2022-12-01T03:29:52.027Z,6.18
2022-12-01T03:32:32.314Z,6.16
2022-12-01T03:35:05.407Z,6.50
2022-12-01T03:37:38.796Z,5.17
2022-12-01T03:40:08.109Z,5.90
2022-12-01T03:42:38.495Z,4.51
2022-12-01T03:45:12.422Z,5.73
2022-12-01T03:47:40.447Z,4.52
2022-12-01T03:50:09.830Z,4.46
2022-12-01T03:52:52.369Z,5.55
2022-12-01T03:55:21.949Z,4.28
2022-12-01T03:58:08.382Z,5.21
2022-12-01T04:00:36.039Z,5.53
2022-12-01T04:03:04.168Z,4.37
2022-12-01T04:05:32.606Z,5.19
2022-12-01T04:08:00.225Z,3.92
2022-12-01T04:10:27.970Z,4.87
2022-12-01T04:12:59.324Z,5.19
2022-12-01T04:15:26.925Z,5.23
2022-12-01T04:17:54.675Z,4.84
2022-12-01T04:20:22.864Z,5.20
2022-12-01T04:22:50.220Z,5.14
2022-12-01T04:25:17.901Z,4.84
2022-12-01T04:27:45.244Z,5.10
2022-12-01T04:30:13.156Z,4.13
2022-12-01T04:32:41.554Z,5.53
2022-12-01T04:35:09.668Z,5.71
2022-12-01T04:37:37.099Z,5.57
2022-12-01T04:40:05.795Z,4.95
2022-12-01T04:42:33.167Z,5.48
2022-12-01T04:45:00.485Z,5.48
2022-12-01T04:47:28.095Z,5.71
2022-12-01T04:49:55.437Z,5.47
2022-12-01T04:52:22.752Z,5.22
2022-12-01T04:54:50.344Z,5.29
2022-12-01T04:57:17.659Z,5.42
2022-12-01T04:59:44.969Z,5.84
2022-12-01T05:02:12.663Z,6.02
2022-12-01T05:04:41.666Z,6.05
2022-12-01T05:07:09.069Z,6.14
2022-12-01T05:09:36.695Z,5.99
2022-12-01T05:12:04.269Z,6.18
2022-12-01T05:14:31.630Z,6.26
2022-12-01T05:17:00.495Z,5.97
2022-12-01T05:19:46.713Z,6.25
2022-12-01T05:22:14.584Z,6.24
2022-12-01T05:24:41.937Z,6.16
2022-12-01T05:27:09.278Z,6.24
2022-12-01T05:29:36.913Z,6.12
2022-12-01T05:32:04.935Z,6.10
2022-12-01T05:34:32.386Z,5.61
2022-12-01T05:36:59.985Z,5.87
2022-12-01T05:39:27.357Z,4.95
2022-12-01T05:41:54.703Z,5.37
2022-12-01T05:44:22.290Z,5.57
2022-12-01T05:46:49.717Z,5.90
2022-12-01T05:49:17.060Z,5.81
2022-12-01T05:51:44.669Z,5.98
2022-12-01T05:54:12.064Z,5.74
2022-12-01T05:56:39.376Z,5.63
2022-12-01T05:59:06.951Z,5.74
2022-12-01T06:01:34.334Z,5.36
2022-12-01T06:04:02.126Z,5.46
2022-12-01T06:06:29.586Z,5.41
2022-12-01T06:08:56.971Z,5.59
2022-12-01T06:11:24.577Z,5.59
2022-12-01T06:13:51.900Z,5.38
2022-12-01T06:16:19.262Z,5.18
2022-12-01T06:18:46.919Z,5.02
2022-12-01T06:21:14.572Z,5.42
2022-12-01T06:23:41.908Z,5.42
2022-12-01T06:26:09.523Z,5.41
2022-12-01T06:28:36.886Z,5.41
2022-12-01T06:31:04.265Z,5.32
2022-12-01T06:33:32.052Z,5.74
2022-12-01T06:35:59.983Z,5.22
2022-12-01T06:38:30.266Z,5.44
2022-12-01T06:41:00.436Z,5.27
2022-12-01T06:43:27.805Z,5.52
2022-12-01T06:46:00.871Z,5.02
2022-12-01T06:48:29.725Z,4.88
2022-12-01T06:51:00.349Z,5.23
2022-12-01T06:53:28.613Z,5.10
2022-12-01T06:56:03.089Z,5.24
2022-12-01T06:58:30.800Z,5.41
2022-12-01T07:00:59.313Z,5.22
2022-12-01T07:03:26.901Z,5.27
2022-12-01T07:06:00.747Z,5.29
2022-12-01T07:08:28.905Z,4.77
2022-12-01T07:11:00.706Z,5.16
2022-12-01T07:13:33.049Z,5.14
2022-12-01T07:16:02.998Z,5.33
2022-12-01T07:18:31.122Z,5.13
2022-12-01T07:21:07.198Z,5.13
2022-12-01T07:23:35.195Z,5.35
2022-12-01T07:26:03.062Z,5.49
2022-12-01T07:28:30.516Z,5.47
2022-12-01T07:31:08.719Z,5.64
2022-12-01T07:33:36.090Z,5.83
2022-12-01T07:36:05.397Z,5.53
2022-12-01T07:38:32.919Z,5.66
2022-12-01T07:41:10.125Z,5.31
2022-12-01T07:43:37.920Z,5.43
2022-12-01T07:46:15.753Z,5.52
2022-12-01T07:48:46.503Z,5.62
2022-12-01T07:51:16.599Z,5.84
2022-12-01T07:53:45.089Z,5.77
2022-12-01T07:56:12.756Z,5.78
2022-12-01T07:58:40.185Z,5.98
2022-12-01T08:01:09.040Z,6.01
2022-12-01T08:03:36.782Z,5.93
2022-12-01T08:06:04.648Z,6.11
2022-12-01T08:08:33.327Z,6.23
2022-12-01T08:11:06.124Z,5.91
2022-12-01T08:13:33.550Z,6.29
2022-12-01T08:16:04.724Z,6.29
2022-12-01T08:18:34.527Z,6.54
2022-12-01T08:21:02.175Z,6.53
2022-12-01T08:23:29.562Z,6.61
2022-12-01T08:26:03.251Z,6.80
2022-12-01T08:28:31.035Z,6.42
2022-12-01T08:30:58.541Z,6.54
2022-12-01T08:33:25.901Z,6.79
2022-12-01T08:35:53.534Z,7.04
2022-12-01T08:38:20.858Z,7.07
2022-12-01T08:40:48.239Z,7.17
2022-12-01T08:43:34.669Z,7.35
2022-12-01T08:46:03.272Z,7.38
2022-12-01T08:48:33.405Z,7.52
2022-12-01T08:51:06.551Z,7.57
2022-12-01T08:53:34.852Z,7.65
2022-12-01T08:56:07.250Z,7.74
2022-12-01T08:58:36.009Z,7.72
2022-12-01T09:01:04.603Z,7.68
2022-12-01T09:03:32.098Z,7.77
2022-12-01T09:06:16.437Z,7.83
2022-12-01T09:08:43.876Z,7.93
2022-12-01T09:11:16.130Z,7.97
2022-12-01T09:13:43.672Z,8.08
2022-12-01T09:16:13.509Z,8.30
2022-12-01T09:18:41.342Z,7.57
2022-12-01T09:21:16.831Z,7.95
2022-12-01T09:23:44.492Z,8.21
2022-12-01T09:26:13.925Z,8.12
2022-12-01T09:28:41.492Z,7.85
2022-12-01T09:31:10.757Z,6.45
2022-12-01T09:33:38.520Z,6.48
2022-12-01T09:36:07.090Z,7.06
2022-12-01T09:38:35.245Z,6.96
2022-12-01T09:41:05.657Z,7.51
2022-12-01T09:43:45.821Z,7.03
2022-12-01T09:46:22.834Z,7.00
2022-12-01T09:48:51.712Z,7.56
2022-12-01T09:51:21.136Z,7.69
2022-12-01T09:53:54.644Z,7.17
2022-12-01T09:56:24.634Z,7.64
2022-12-01T09:59:02.878Z,7.47
2022-12-01T10:01:37.858Z,7.81
2022-12-01T10:04:21.593Z,7.74
2022-12-01T10:06:52.946Z,7.55
2022-12-01T10:09:36.487Z,6.80
2022-12-01T10:12:15.081Z,7.19
2022-12-01T10:14:44.787Z,7.33
2022-12-01T10:17:59.879Z,7.63
2022-12-01T10:20:33.302Z,7.38
2022-12-01T10:23:08.339Z,7.58
2022-12-01T10:25:57.973Z,6.92
2022-12-01T10:28:43.687Z,7.78
2022-12-01T10:31:35.924Z,7.45
2022-12-01T10:34:13.962Z,7.91
2022-12-01T10:36:41.605Z,7.59
2022-12-01T10:39:23.919Z,7.82
2022-12-01T10:41:51.552Z,7.84
2022-12-01T10:44:18.976Z,7.52
2022-12-01T10:46:52.448Z,7.17
2022-12-01T10:49:20.168Z,6.92
2022-12-01T10:51:57.400Z,7.31
2022-12-01T10:54:33.517Z,7.79
2022-12-01T10:57:01.400Z,8.06
2022-12-01T10:59:36.439Z,7.90
2022-12-01T11:02:05.419Z,8.23
2022-12-01T11:04:45.133Z,8.24
2022-12-01T11:07:17.562Z,8.10
2022-12-01T11:09:45.809Z,7.98
2022-12-01T11:12:15.513Z,7.78
2022-12-01T11:14:43.817Z,8.25
2022-12-01T11:17:30.933Z,8.20
2022-12-01T11:19:59.012Z,7.76
2022-12-01T11:22:30.853Z,8.37
2022-12-01T11:25:03.265Z,8.33
2022-12-01T11:27:50.599Z,8.56
2022-12-01T11:30:25.959Z,8.86
2022-12-01T11:33:01.652Z,8.32
2022-12-01T11:35:33.538Z,8.04
2022-12-01T11:40:52.558Z,8.59
2022-12-01T11:43:29.895Z,8.92
2022-12-01T11:45:58.871Z,9.29
2022-12-01T11:48:28.691Z,8.62
2022-12-01T11:51:37.208Z,8.43
2022-12-01T11:54:20.208Z,9.00
2022-12-01T11:56:56.136Z,9.16
2022-12-01T11:59:36.224Z,9.20
2022-12-01T12:02:25.983Z,8.74
2022-12-01T12:05:20.116Z,8.43
2022-12-01T12:08:09.357Z,8.14
2022-12-01T12:10:57.088Z,7.76
2022-12-01T12:13:40.490Z,7.55
2022-12-01T12:16:28.886Z,7.98
2022-12-01T12:19:33.814Z,7.81
2022-12-01T12:22:14.159Z,8.49
2022-12-01T12:25:02.711Z,8.09
2022-12-01T12:27:48.603Z,8.38
2022-12-01T12:30:21.813Z,8.97
2022-12-01T12:33:09.865Z,8.87
2022-12-01T12:36:12.013Z,8.27
2022-12-01T12:39:17.227Z,8.88
2022-12-01T12:42:20.091Z,8.97
2022-12-01T12:44:52.875Z,9.13
2022-12-01T12:47:38.156Z,8.99
2022-12-01T12:50:46.821Z,8.69
2022-12-01T12:53:22.079Z,8.96
2022-12-01T12:55:51.322Z,9.27
2022-12-01T12:58:36.416Z,9.37
2022-12-01T13:01:26.381Z,8.89
2022-12-01T13:04:14.483Z,8.24
2022-12-01T13:06:45.884Z,8.53
2022-12-01T13:09:20.950Z,7.77
2022-12-01T13:12:16.026Z,8.59
2022-12-01T13:14:48.962Z,9.06
2022-12-01T13:17:22.507Z,8.27
2022-12-01T13:19:49.971Z,8.54
2022-12-01T13:22:18.931Z,8.98
2022-12-01T13:24:46.305Z,8.98
2022-12-01T13:27:17.649Z,9.13
2022-12-01T13:29:49.682Z,8.41
2022-12-01T13:32:40.412Z,8.60
2022-12-01T13:35:21.697Z,8.53
2022-12-01T13:37:49.052Z,8.10
2022-12-01T13:40:29.633Z,8.24
2022-12-01T13:43:05.489Z,7.91
2022-12-01T13:45:37.098Z,8.13
2022-12-01T13:48:05.214Z,8.67
2022-12-01T13:50:45.998Z,8.91
2022-12-01T13:53:19.362Z,9.00
2022-12-01T13:56:00.465Z,9.19
2022-12-01T13:58:34.216Z,9.18
2022-12-01T14:01:20.603Z,9.31
2022-12-01T14:04:22.367Z,9.30
2022-12-01T14:06:50.187Z,9.17
2022-12-01T14:09:32.089Z,9.31
2022-12-01T14:12:01.304Z,9.09
2022-12-01T14:14:34.638Z,9.00
2022-12-01T14:17:03.237Z,8.74
2022-12-01T14:19:46.086Z,9.11
2022-12-01T14:22:35.106Z,9.10
2022-12-01T14:25:06.048Z,8.93
2022-12-01T14:27:42.274Z,8.93
2022-12-01T14:30:41.073Z,9.19
2022-12-01T14:33:49.132Z,9.17
2022-12-01T14:36:49.189Z,9.15
2022-12-01T14:39:31.275Z,9.15
2022-12-01T14:42:11.420Z,9.27
2022-12-01T14:44:43.893Z,9.05
2022-12-01T14:47:11.375Z,9.06
2022-12-01T14:49:55.720Z,8.94
2022-12-01T14:52:26.295Z,9.06
2022-12-01T14:55:01.622Z,8.99
2022-12-01T14:57:32.272Z,8.90
2022-12-01T15:00:11.014Z,8.87
2022-12-01T15:03:09.266Z,8.80
2022-12-01T15:05:43.456Z,8.70
2022-12-01T15:08:45.704Z,8.82
2022-12-01T15:11:23.289Z,8.66
2022-12-01T15:13:54.810Z,8.65
2022-12-01T15:16:24.029Z,8.53
2022-12-01T15:18:52.028Z,8.47
2022-12-01T15:21:26.975Z,8.57
2022-12-01T15:24:01.335Z,8.66
2022-12-01T15:26:45.977Z,8.54
2022-12-01T15:29:20.570Z,8.55
2022-12-01T15:31:51.238Z,8.57
2022-12-01T15:34:25.075Z,8.35
2022-12-01T15:36:53.238Z,8.38
2022-12-01T15:39:33.950Z,8.48
2022-12-01T15:42:25.300Z,8.47
2022-12-01T15:45:19.621Z,8.47
2022-12-01T15:47:49.081Z,8.51
2022-12-01T15:50:31.434Z,8.49
2022-12-01T15:53:28.902Z,8.48
2022-12-01T15:55:59.184Z,8.56
2022-12-01T15:58:30.296Z,8.45
2022-12-01T16:01:04.765Z,8.37
2022-12-01T16:03:47.058Z,8.42
2022-12-01T16:06:14.427Z,8.24
2022-12-01T16:08:42.103Z,8.32
2022-12-01T16:11:16.821Z,8.40
2022-12-01T16:13:56.351Z,8.32
2022-12-01T16:16:36.844Z,8.20
2022-12-01T16:19:07.341Z,8.19
2022-12-01T16:21:53.826Z,8.10
2022-12-01T16:24:27.522Z,8.14
2022-12-01T16:27:00.230Z,7.99
2022-12-01T16:29:29.306Z,8.08
2022-12-01T16:32:19.225Z,8.17
2022-12-01T16:34:47.405Z,8.12
2022-12-01T16:37:14.973Z,7.89
2022-12-01T16:39:42.433Z,8.00
2022-12-01T16:42:12.467Z,7.77
2022-12-01T16:44:40.697Z,7.94
2022-12-01T16:47:13.900Z,7.77
2022-12-01T16:49:41.534Z,7.57
2022-12-01T16:52:42.576Z,7.66
2022-12-01T16:54:56.697Z,7.82
2022-12-01T16:57:24.117Z,7.82
2022-12-01T16:59:51.455Z,7.51
2022-12-01T17:02:19.093Z,7.62
2022-12-01T17:04:46.497Z,7.75
2022-12-01T17:07:13.849Z,7.77
2022-12-01T17:09:41.516Z,7.84
2022-12-01T17:12:08.867Z,7.88
2022-12-01T17:14:38.096Z,7.91
2022-12-01T17:17:05.870Z,7.84
2022-12-01T17:19:33.207Z,7.88
2022-12-01T17:22:00.552Z,7.79
2022-12-01T17:24:28.225Z,7.66
2022-12-01T17:26:55.576Z,7.66
2022-12-01T17:29:22.899Z,7.73
2022-12-01T17:31:50.519Z,7.71
2022-12-01T17:34:17.899Z,7.74
2022-12-01T17:36:45.384Z,7.64
2022-12-01T17:39:13.096Z,7.50
2022-12-01T17:41:42.141Z,7.57
2022-12-01T17:44:09.519Z,7.63
2022-12-01T17:46:38.522Z,7.54
2022-12-01T17:49:09.475Z,7.50
2022-12-01T17:51:37.160Z,7.11
2022-12-01T17:54:04.869Z,7.27
2022-12-01T17:56:32.284Z,7.25
2022-12-01T17:58:59.893Z,7.07
2022-12-01T18:01:30.369Z,7.22
2022-12-01T18:03:59.037Z,7.10
2022-12-01T18:06:26.915Z,7.15
2022-12-01T18:08:54.247Z,7.25
2022-12-01T18:11:22.895Z,7.23
2022-12-01T18:13:50.535Z,7.24
2022-12-01T18:16:25.042Z,7.01
2022-12-01T18:18:52.930Z,7.02
2022-12-01T18:21:21.183Z,7.05
2022-12-01T18:23:58.160Z,7.16
2022-12-01T18:26:26.077Z,6.96
2022-12-01T18:28:54.838Z,7.08
2022-12-01T18:31:22.356Z,6.78
2022-12-01T18:33:50.141Z,6.84
2022-12-01T18:36:19.860Z,7.02
2022-12-01T18:38:47.456Z,6.89
2022-12-01T18:41:15.557Z,6.74
2022-12-01T18:43:42.961Z,6.83
2022-12-01T18:46:13.913Z,6.88
2022-12-01T18:48:48.656Z,6.81
2022-12-01T18:51:16.256Z,6.91
2022-12-01T18:53:45.431Z,6.76
2022-12-01T18:56:15.054Z,6.89
2022-12-01T18:58:42.855Z,6.48
2022-12-01T19:01:21.526Z,6.80
2022-12-01T19:03:49.032Z,6.75
2022-12-01T19:06:17.103Z,6.54
2022-12-01T19:08:47.050Z,6.62
2022-12-01T19:11:16.340Z,6.59
2022-12-01T19:13:44.041Z,6.74
2022-12-01T19:16:18.423Z,6.62
2022-12-01T19:18:46.270Z,6.80
2022-12-01T19:21:15.233Z,6.23
2022-12-01T19:23:42.852Z,6.31
2022-12-01T19:26:11.956Z,6.53
2022-12-01T19:28:42.128Z,6.47
2022-12-01T19:31:11.325Z,6.32
2022-12-01T19:33:38.773Z,6.31
2022-12-01T19:36:07.651Z,6.49
2022-12-01T19:38:35.319Z,6.16
2022-12-01T19:41:02.759Z,6.27
2022-12-01T19:43:30.264Z,6.17
2022-12-01T19:45:57.986Z,6.43
2022-12-01T19:48:25.416Z,6.42
2022-12-01T19:50:52.737Z,6.60
2022-12-01T19:53:20.373Z,6.28
2022-12-01T19:55:47.714Z,6.40
2022-12-01T19:58:15.057Z,6.15
2022-12-01T20:00:42.654Z,5.71
2022-12-01T20:03:10.287Z,6.10
2022-12-01T20:05:37.657Z,6.42
2022-12-01T20:08:05.107Z,6.20
2022-12-01T20:10:33.597Z,6.28
2022-12-01T20:13:01.113Z,6.49
2022-12-01T20:15:28.571Z,6.23
2022-12-01T20:17:56.248Z,6.43
2022-12-01T20:20:23.632Z,6.43
2022-12-01T20:22:50.982Z,6.10
2022-12-01T20:25:18.820Z,6.12
2022-12-01T20:27:46.149Z,5.59
2022-12-01T20:30:14.093Z,5.79
2022-12-01T20:32:41.824Z,6.19
2022-12-01T20:35:11.938Z,5.60
2022-12-01T20:37:39.663Z,5.85
2022-12-01T20:40:07.724Z,5.93
2022-12-01T20:42:36.846Z,5.98
2022-12-01T20:45:04.698Z,6.12
2022-12-01T20:47:36.589Z,6.24
2022-12-01T20:50:05.380Z,6.11
2022-12-01T20:52:33.008Z,5.76
2022-12-01T20:55:00.423Z,5.97
2022-12-01T20:57:27.962Z,5.53
2022-12-01T20:59:55.557Z,5.62
2022-12-01T21:02:23.057Z,5.48
2022-12-01T21:04:52.245Z,5.78
2022-12-01T21:07:21.696Z,5.69
2022-12-01T21:09:49.290Z,5.54
2022-12-01T21:12:35.454Z,5.36
2022-12-01T21:15:08.435Z,5.47
2022-12-01T21:18:09.062Z,5.60
2022-12-01T21:20:40.363Z,5.02
2022-12-01T21:23:12.993Z,5.44
2022-12-01T21:25:41.516Z,5.22
2022-12-01T21:28:19.060Z,5.31
2022-12-01T21:30:47.623Z,5.48
2022-12-01T21:33:23.308Z,5.60
2022-12-01T21:35:51.965Z,5.26
2022-12-01T21:38:22.075Z,5.44
2022-12-01T21:40:49.931Z,5.30
2022-12-01T21:43:22.645Z,5.15
2022-12-01T21:45:58.450Z,5.32
2022-12-01T21:48:27.690Z,5.30
2022-12-01T21:51:01.915Z,5.03
2022-12-01T21:53:37.118Z,4.94
2022-12-01T21:56:04.588Z,4.64
2022-12-01T21:58:36.948Z,4.78
2022-12-01T22:01:14.851Z,5.21
2022-12-01T22:03:45.881Z,4.97
2022-12-01T22:06:29.657Z,5.11
2022-12-01T22:09:01.390Z,5.26
2022-12-01T22:11:29.749Z,4.32
2022-12-01T22:14:11.261Z,5.05
2022-12-01T22:16:51.401Z,5.28
2022-12-01T22:19:35.527Z,5.48
2022-12-01T22:22:09.229Z,5.10
2022-12-01T22:24:43.023Z,5.32
2022-12-01T22:27:31.801Z,5.48
2022-12-01T22:30:03.291Z,5.51
2022-12-01T22:32:35.488Z,5.03
2022-12-01T22:35:28.171Z,5.37
2022-12-01T22:38:08.643Z,4.85
2022-12-01T22:40:43.375Z,5.10
2022-12-01T22:43:16.803Z,5.02
2022-12-01T22:46:00.088Z,5.26
2022-12-01T22:48:27.812Z,5.20
2022-12-01T22:50:55.154Z,5.49
2022-12-01T22:53:29.104Z,5.35
2022-12-01T22:55:57.640Z,5.29
2022-12-01T22:58:28.591Z,5.29
2022-12-01T23:00:57.979Z,5.48
2022-12-01T23:03:26.159Z,5.23
2022-12-01T23:05:55.833Z,5.34
2022-12-01T23:08:23.563Z,5.24
2022-12-01T23:10:51.664Z,5.71
2022-12-01T23:13:21.653Z,5.68
2022-12-01T23:15:50.828Z,5.56
2022-12-01T23:18:26.959Z,5.18
2022-12-01T23:20:58.152Z,5.69
2022-12-01T23:23:27.050Z,5.20
2022-12-01T23:25:54.523Z,5.49
2022-12-01T23:28:21.999Z,5.92
2022-12-01T23:30:51.598Z,5.79
2022-12-01T23:33:26.184Z,5.71
2022-12-01T23:36:08.862Z,5.92
2022-12-01T23:38:41.096Z,5.96
2022-12-01T23:41:39.181Z,5.86
2022-12-01T23:44:23.885Z,5.97
2022-12-01T23:46:53.687Z,6.06
2022-12-01T23:49:24.366Z,5.72
2022-12-01T23:51:53.183Z,5.94
2022-12-01T23:54:34.144Z,6.07
2022-12-01T23:57:03.182Z,5.83
2022-12-01T23:59:30.554Z,5.53
